Time;durP1;ratioP1;P1;durP2;ratioP2;P2;SDS_P1;SDS_P2;PMS_P1;PMS_P2;Temp;Humidity;BMP_temperature;BMP_pressure;BME280_temperature;BME280_humidity;BME280_pressure;Samples;Min_cycle;Max_cycle;Signal;HPM_P1;HPM_P2
2024/04/05 00:02:15;;;;;;;17.67;2.78;;;;;;;11.28;100.00;97884.72;4760142;29;20523;-84
2024/04/05 00:04:45;;;;;;;18.10;3.13;;;;;;;11.29;100.00;97869.69;4754448;29;20035;-82
2024/04/05 00:07:12;;;;;;;22.70;3.53;;;;;;;11.27;100.00;97863.78;4770625;29;20039;-85
2024/04/05 00:09:41;;;;;;;16.85;2.47;;;;;;;11.31;100.00;97867.59;4769491;29;20035;-87
2024/04/05 00:12:10;;;;;;;20.98;3.15;;;;;;;11.26;100.00;97865.59;4788520;29;20047;-92
2024/04/05 00:14:36;;;;;;;22.48;3.90;;;;;;;11.28;100.00;97870.69;4770520;29;20034;-82
2024/04/05 00:17:06;;;;;;;20.55;2.72;;;;;;;11.32;100.00;97873.72;4754004;30;20084;-86
2024/04/05 00:19:32;;;;;;;20.77;3.10;;;;;;;11.24;100.00;97877.44;4783338;29;20754;-82
2024/04/05 00:22:09;;;;;;;18.70;2.40;;;;;;;11.27;100.00;97877.00;4770540;29;20073;-83
2024/04/05 00:24:57;;;;;;;19.27;2.40;;;;;;;11.16;100.00;97852.84;4781674;29;20049;-82
2024/04/05 00:32:39;;;;;;;10.98;2.28;;;;;;;11.12;100.00;97859.59;4769621;29;20045;-86
2024/04/05 00:35:25;;;;;;;14.07;2.05;;;;;;;11.11;100.00;97862.44;4765769;29;20055;-83
2024/04/05 00:38:14;;;;;;;13.57;2.17;;;;;;;11.07;100.00;97864.69;4774907;29;20046;-80
2024/04/05 00:44:35;;;;;;;7.00;1.30;;;;;;;11.12;100.00;97872.00;4768120;29;20042;-82
2024/04/05 00:47:05;;;;;;;10.10;1.52;;;;;;;11.08;100.00;97866.34;4777129;29;20054;-84
2024/04/05 00:49:55;;;;;;;14.50;1.63;;;;;;;11.20;100.00;97863.00;4789264;29;20034;-81
2024/04/05 00:52:31;;;;;;;14.98;2.70;;;;;;;11.18;100.00;97867.72;4766811;29;20386;-81
2024/04/05 00:54:59;;;;;;;15.32;3.00;;;;;;;11.20;100.00;97871.75;4778375;29;20104;-84
2024/04/05 00:57:39;;;;;;;14.65;2.10;;;;;;;11.20;100.00;97876.22;4798710;29;20753;-80
2024/04/05 01:00:09;;;;;;;28.25;3.78;;;;;;;11.21;100.00;97869.91;4780833;29;20598;-81
2024/04/05 01:03:02;;;;;;;17.75;3.38;;;;;;;11.20;100.00;97863.81;4782069;29;20143;-84
2024/04/05 01:06:30;;;;;;;24.27;3.78;;;;;;;11.26;100.00;97859.53;4763592;29;20042;-83
2024/04/05 01:09:17;;;;;;;17.95;3.10;;;;;;;11.27;100.00;97863.78;4759655;29;20073;-82
2024/04/05 01:11:54;;;;;;;34.80;4.53;;;;;;;11.24;100.00;97849.16;4753792;29;20043;-85
2024/04/05 01:14:19;;;;;;;21.98;3.35;;;;;;;11.19;100.00;97851.63;4767182;29;20043;-84
2024/04/05 01:16:54;;;;;;;21.90;3.40;;;;;;;11.16;100.00;97847.56;4800664;29;20073;-89
2024/04/05 01:19:29;;;;;;;24.08;3.72;;;;;;;11.15;100.00;97853.88;4783475;29;20042;-85
2024/04/05 01:22:03;;;;;;;19.23;3.72;;;;;;;11.21;100.00;97864.63;4766212;29;20133;-86
2024/04/05 01:24:41;;;;;;;20.67;3.25;;;;;;;11.12;100.00;97859.59;4800464;29;20074;-85
2024/04/05 01:27:36;;;;;;;22.88;4.75;;;;;;;11.10;100.00;97858.97;4760378;29;20050;-84
2024/04/05 01:30:04;;;;;;;25.27;3.28;;;;;;;11.06;100.00;97851.69;4766251;30;20058;-83
2024/04/05 01:32:34;;;;;;;19.00;4.03;;;;;;;11.04;100.00;97865.94;4782346;29;20507;-83
2024/04/05 01:35:04;;;;;;;26.58;3.20;;;;;;;11.02;100.00;97859.25;4781835;29;20560;-84
2024/04/05 01:37:33;;;;;;;23.83;3.60;;;;;;;11.01;100.00;97858.44;4782904;29;20158;-86
2024/04/05 01:39:59;;;;;;;19.48;2.83;;;;;;;11.01;100.00;97860.25;4781380;29;20047;-86
2024/04/05 01:45:45;;;;;;;24.48;3.47;;;;;;;11.06;100.00;97852.50;4787622;29;20671;-83
2024/04/05 01:48:14;;;;;;;22.63;3.40;;;;;;;11.07;100.00;97845.41;4766852;29;20137;-84
2024/04/05 01:50:54;;;;;;;21.75;4.30;;;;;;;11.00;100.00;97827.75;4786178;29;20449;-82
2024/04/05 01:53:24;;;;;;;22.02;3.50;;;;;;;11.01;100.00;97816.13;4768783;29;20061;-84
2024/04/05 01:55:53;;;;;;;21.45;3.53;;;;;;;11.03;100.00;97824.69;4770804;29;20047;-87
2024/04/05 01:58:19;;;;;;;17.70;3.38;;;;;;;10.98;100.00;97827.13;4787060;29;20037;-84
2024/04/05 02:00:48;;;;;;;28.90;3.72;;;;;;;10.97;100.00;97811.50;4785638;29;20039;-84
2024/04/05 02:03:21;;;;;;;23.23;3.35;;;;;;;10.99;100.00;97825.31;4785251;29;20035;-88
2024/04/05 02:05:47;;;;;;;22.98;3.97;;;;;;;10.98;100.00;97823.69;4798755;29;20137;-80
2024/04/05 02:08:13;;;;;;;26.33;4.18;;;;;;;11.00;100.00;97821.63;4779729;29;20158;-83
2024/04/05 02:10:39;;;;;;;26.70;4.53;;;;;;;11.03;100.00;97816.75;4772619;29;20039;-82
2024/04/05 02:13:32;;;;;;;29.00;4.18;;;;;;;11.03;100.00;97816.75;4776424;29;20173;-84
2024/04/05 02:16:07;;;;;;;29.42;4.97;;;;;;;11.06;100.00;97814.69;4786388;29;20527;-81
2024/04/05 02:19:04;;;;;;;27.30;4.55;;;;;;;11.02;100.00;97803.75;4789816;29;20072;-85
2024/04/05 02:22:05;;;;;;;25.77;4.80;;;;;;;11.01;100.00;97800.28;4802741;29;20476;-82
2024/04/05 02:24:59;;;;;;;31.23;5.18;;;;;;;11.01;100.00;97805.56;4772005;29;20039;-86
2024/04/05 02:27:30;;;;;;;31.50;4.32;;;;;;;11.04;100.00;97805.13;4779505;29;20074;-80
2024/04/05 02:33:04;;;;;;;24.13;5.05;;;;;;;10.97;100.00;97785.88;4796672;29;20579;-81
2024/04/05 02:35:31;;;;;;;36.75;6.30;;;;;;;10.94;100.00;97767.78;4773441;29;20038;-86
2024/04/05 02:38:06;;;;;;;32.08;5.30;;;;;;;10.99;100.00;97764.53;4769570;29;20102;-83
2024/04/05 02:40:35;;;;;;;29.23;5.45;;;;;;;11.01;100.00;97781.78;4770683;29;20173;-80
2024/04/05 02:43:17;;;;;;;32.30;5.03;;;;;;;10.97;100.00;97770.03;4773729;29;20481;-81
2024/04/05 02:45:46;;;;;;;33.63;4.80;;;;;;;10.94;100.00;97767.78;4771355;29;20593;-86
2024/04/05 02:48:17;;;;;;;37.65;6.18;;;;;;;10.89;100.00;97763.13;4758335;29;20053;-82
2024/04/05 02:50:44;;;;;;;28.80;4.53;;;;;;;10.88;100.00;97769.44;4772654;29;20125;-83
2024/04/05 02:53:23;;;;;;;38.10;5.28;;;;;;;10.88;100.00;97769.44;4754119;30;20195;-83
2024/04/05 02:55:55;;;;;;;27.20;4.18;;;;;;;10.79;100.00;97762.81;4790609;29;20026;-81
2024/04/05 02:58:27;;;;;;;26.05;5.25;;;;;;;10.88;100.00;97760.72;4776551;29;20425;-81
2024/04/05 03:00:56;;;;;;;28.38;4.32;;;;;;;10.83;100.00;97747.34;4771230;29;20142;-83
2024/04/05 03:03:23;;;;;;;26.83;4.22;;;;;;;10.80;100.00;97753.84;4794860;29;20057;-81
2024/04/05 03:06:17;;;;;;;35.85;6.05;;;;;;;10.82;100.00;97764.19;4799222;29;20072;-85
2024/04/05 03:08:48;;;;;;;28.95;5.30;;;;;;;10.79;100.00;97763.63;4769447;29;20388;-87
2024/04/05 03:11:29;;;;;;;37.95;5.15;;;;;;;10.74;100.00;97752.06;4802227;29;20031;-82
2024/04/05 03:13:54;;;;;;;34.75;5.45;;;;;;;10.78;100.00;97761.19;4758953;29;20185;-82
2024/04/05 03:16:24;;;;;;;29.83;3.80;;;;;;;10.77;100.00;97760.38;4772328;29;20103;-82
2024/04/05 03:18:53;;;;;;;35.33;5.80;;;;;;;10.75;100.00;97758.97;4788693;29;20398;-84
2024/04/05 03:21:21;;;;;;;34.00;4.70;;;;;;;10.82;100.00;97748.34;4770351;29;20035;-83
2024/04/05 03:23:50;;;;;;;39.88;5.05;;;;;;;10.78;100.00;97756.69;4791824;29;20436;-82
2024/04/05 03:26:16;;;;;;;35.65;6.03;;;;;;;10.82;100.00;97761.56;4784137;29;20034;-85
2024/04/05 03:28:45;;;;;;;38.58;6.32;;;;;;;10.84;100.00;97767.44;4788062;29;20039;-88
2024/04/05 03:31:14;;;;;;;39.63;5.63;;;;;;;10.85;100.00;97767.25;4784003;29;20394;-88
2024/04/05 03:33:40;;;;;;;35.25;5.20;;;;;;;10.79;100.00;97762.81;4776646;29;20043;-87
2024/04/05 03:36:07;;;;;;;34.88;4.95;;;;;;;10.79;100.00;97776.84;4784362;29;20187;-84
2024/04/05 03:38:35;;;;;;;36.05;6.13;;;;;;;10.73;100.00;97764.47;4756183;29;20085;-81
2024/04/05 03:41:05;;;;;;;36.40;6.70;;;;;;;10.76;100.00;97771.16;4771556;29;20050;-87
2024/04/05 03:44:27;;;;;;;35.13;6.63;;;;;;;10.76;100.00;97766.69;4797670;29;20351;-87
2024/04/05 03:47:32;;;;;;;37.28;4.60;;;;;;;10.65;100.00;97765.50;4771267;29;20047;-82
2024/04/05 03:50:58;;;;;;;26.25;5.07;;;;;;;10.70;100.00;97761.44;4759784;29;20045;-81
2024/04/05 03:53:52;;;;;;;33.50;5.25;;;;;;;10.65;100.00;97754.16;4793420;29;20070;-82
2024/04/05 03:56:18;;;;;;;37.17;5.88;;;;;;;10.62;100.00;97751.94;4788186;29;20114;-87
2024/04/05 03:58:51;;;;;;;35.50;5.32;;;;;;;10.57;100.00;97743.81;4785430;29;20122;-88
2024/04/05 04:01:17;;;;;;;30.13;5.13;;;;;;;10.60;100.00;97761.88;4769365;29;20047;-81
2024/04/05 04:03:43;;;;;;;28.40;4.65;;;;;;;10.58;100.00;97753.34;4782159;29;20126;-81
2024/04/05 04:06:09;;;;;;;31.95;4.80;;;;;;;10.62;100.00;97759.84;4771405;29;20183;-88
2024/04/05 04:08:46;;;;;;;31.60;5.03;;;;;;;10.58;100.00;97750.72;4763992;29;20085;-89
2024/04/05 04:11:14;;;;;;;39.28;5.40;;;;;;;10.59;100.00;97739.94;4756611;29;20098;-85
2024/04/05 04:13:43;;;;;;;43.30;7.72;;;;;;;10.70;100.00;97750.88;4766451;29;20042;-83
2024/04/05 04:16:09;;;;;;;40.85;5.53;;;;;;;10.67;100.00;97744.19;4769738;29;20043;-83
2024/04/05 04:18:35;;;;;;;35.55;5.78;;;;;;;10.68;100.00;97737.88;4788957;29;20492;-81
2024/04/05 04:21:02;;;;;;;32.45;4.80;;;;;;;10.66;100.00;97740.72;4784294;29;20507;-82
2024/04/05 04:23:30;;;;;;;31.48;5.57;;;;;;;10.68;100.00;97745.78;4768683;29;20417;-84
2024/04/05 04:26:05;;;;;;;34.50;7.18;;;;;;;10.70;100.00;97748.22;4772698;29;20049;-83
2024/04/05 04:28:32;;;;;;;27.98;5.38;;;;;;;10.64;100.00;97734.00;4800939;29;20039;-88
2024/04/05 04:31:15;;;;;;;34.60;5.57;;;;;;;10.66;100.00;97727.53;4770037;29;20035;-87
2024/04/05 04:33:47;;;;;;;35.28;6.63;;;;;;;10.67;100.00;97731.78;4770427;29;20038;-86
2024/04/05 04:39:13;;;;;;;34.63;5.20;;;;;;;10.66;100.00;97742.53;4761492;29;20853;-85
2024/04/05 04:41:50;;;;;;;27.40;4.30;;;;;;;10.67;100.00;97734.41;4782147;29;20043;-86
2024/04/05 04:44:28;;;;;;;27.42;5.13;;;;;;;10.65;100.00;97747.00;4770364;29;20066;-89
2024/04/05 04:46:53;;;;;;;31.98;5.80;;;;;;;10.65;100.00;97740.94;4768273;29;20664;-84
2024/04/05 04:49:28;;;;;;;25.80;4.45;;;;;;;10.63;100.00;97743.78;4754512;29;20151;-81
2024/04/05 04:52:16;;;;;;;35.58;5.90;;;;;;;10.66;100.00;97735.44;4766560;29;20039;-83
2024/04/05 04:54:45;;;;;;;33.58;5.93;;;;;;;10.62;100.00;97738.72;4780249;29;20072;-86
2024/04/05 04:57:14;;;;;;;28.75;5.78;;;;;;;10.63;100.00;97727.94;4770110;29;20042;-86
2024/04/05 04:59:43;;;;;;;37.60;5.90;;;;;;;10.67;100.00;97734.41;4770433;29;20178;-84
2024/04/05 05:02:09;;;;;;;37.58;5.68;;;;;;;10.65;100.00;97733.81;4759668;29;20805;-83
2024/04/05 05:04:38;;;;;;;35.95;5.60;;;;;;;10.68;100.00;97719.38;4767025;29;20083;-84
2024/04/05 05:07:06;;;;;;;39.50;7.10;;;;;;;10.61;100.00;97703.56;4772113;29;20043;-89
2024/04/05 05:09:39;;;;;;;34.53;6.05;;;;;;;10.59;100.00;97710.88;4773011;29;20130;-89
2024/04/05 05:12:19;;;;;;;36.33;5.65;;;;;;;10.68;100.00;97719.38;4748208;29;20115;-89
2024/04/05 05:14:45;;;;;;;35.13;5.47;;;;;;;10.64;100.00;97720.81;4781303;29;20043;-85
2024/04/05 05:17:13;;;;;;;39.22;6.10;;;;;;;10.66;100.00;97724.88;4762353;29;20050;-79
2024/04/05 05:19:42;;;;;;;39.42;6.72;;;;;;;10.69;100.00;97718.34;4783216;29;20039;-88
2024/04/05 05:22:10;;;;;;;35.28;5.82;;;;;;;10.69;100.00;97726.28;4770602;29;20043;-87
2024/04/05 05:24:58;;;;;;;38.58;5.65;;;;;;;10.71;100.00;97720.78;4771843;29;20042;-81
2024/04/05 05:27:32;;;;;;;43.38;6.63;;;;;;;10.74;100.00;97725.63;4785658;29;20038;-83
2024/04/05 05:30:21;;;;;;;32.08;5.85;;;;;;;10.72;100.00;97715.28;4762028;29;20507;-81
2024/04/05 05:34:25;;;;;;;43.55;6.43;;;;;;;10.79;100.00;97723.16;4753614;29;20497;-83
2024/04/05 05:36:40;;;;;;;40.90;7.05;;;;;;;10.80;100.00;97727.41;4771326;29;20666;-83
2024/04/05 05:39:06;;;;;;;43.58;7.63;;;;;;;10.76;100.00;97723.59;4776592;29;20047;-82
2024/04/05 05:41:35;;;;;;;46.40;6.85;;;;;;;10.81;100.00;97731.69;4767222;29;20035;-81
2024/04/05 05:44:01;;;;;;;39.35;6.85;;;;;;;10.73;100.00;97724.84;4767689;30;20035;-81
2024/04/05 05:46:45;;;;;;;42.22;6.45;;;;;;;10.81;100.00;97726.41;4757098;29;20051;-86
2024/04/05 05:49:29;;;;;;;41.95;7.45;;;;;;;10.83;100.00;97736.78;4786516;29;20645;-83
2024/04/05 05:52:57;;;;;;;54.00;6.93;;;;;;;10.78;100.00;97725.00;4767833;29;20499;-85
2024/04/05 05:56:41;;;;;;;47.35;8.07;;;;;;;10.75;100.00;97719.34;4775634;29;20050;-88
2024/04/05 05:59:15;;;;;;;41.78;6.10;;;;;;;10.63;100.00;97714.75;4770400;29;20043;-85
2024/04/05 06:02:32;;;;;;;34.75;5.40;;;;;;;10.71;100.00;97729.53;4720920;30;20099;-90
2024/04/05 06:05:11;;;;;;;43.33;6.28;;;;;;;10.67;100.00;97725.69;4703258;30;20049;-87
2024/04/05 06:10:56;;;;;;;34.33;5.28;;;;;;;10.66;100.00;97719.59;4782978;29;20026;-88
2024/04/05 06:13:25;;;;;;;35.70;6.18;;;;;;;10.62;100.00;97710.47;4763882;29;20100;-83
2024/04/05 06:16:01;;;;;;;36.78;6.88;;;;;;;10.70;100.00;97737.66;4751709;29;20081;-85
2024/04/05 06:18:48;;;;;;;31.40;5.05;;;;;;;10.65;100.00;97722.44;4779365;29;20115;-84
2024/04/05 06:21:14;;;;;;;47.10;6.97;;;;;;;10.73;100.00;97726.66;4780965;30;20085;-83
2024/04/05 06:23:46;;;;;;;35.08;6.82;;;;;;;10.78;100.00;97721.56;4780816;29;20492;-83
2024/04/05 06:26:18;;;;;;;50.38;7.40;;;;;;;10.82;100.00;97727.22;4772395;29;20088;-84
2024/04/05 06:28:47;;;;;;;43.70;7.15;;;;;;;10.71;100.00;97720.78;4775192;29;20035;-83
2024/04/05 06:31:17;;;;;;;40.35;6.40;;;;;;;10.74;100.00;97725.63;4763259;29;20038;-82
2024/04/05 06:33:49;;;;;;;42.20;6.65;;;;;;;10.81;100.00;97723.78;4798362;29;20070;-86
2024/04/05 06:36:18;;;;;;;45.05;6.50;;;;;;;10.78;100.00;97735.56;4764513;29;20108;-84
2024/04/05 06:38:56;;;;;;;38.60;7.07;;;;;;;10.78;100.00;97732.13;4781853;29;20129;-85
2024/04/05 06:41:21;;;;;;;46.35;7.10;;;;;;;10.79;100.00;97736.38;4786509;29;20130;-87
2024/04/05 06:43:48;;;;;;;43.78;6.38;;;;;;;10.85;100.00;97740.81;4754385;29;20135;-83
2024/04/05 06:46:50;;;;;;;49.08;6.90;;;;;;;10.83;100.00;97726.19;4754188;29;20058;-89
2024/04/05 06:49:17;;;;;;;40.50;6.72;;;;;;;10.88;100.00;97737.75;4762169;29;20043;-88
2024/04/05 06:52:13;;;;;;;48.20;7.55;;;;;;;10.94;100.00;97743.19;4784662;29;20043;-88
2024/04/05 06:54:48;;;;;;;41.88;7.80;;;;;;;10.92;100.00;97728.34;4771991;29;20046;-83
2024/04/05 06:57:19;;;;;;;42.13;8.27;;;;;;;10.95;100.00;97739.53;4796250;29;20215;-84
2024/04/05 06:59:48;;;;;;;50.15;7.45;;;;;;;11.02;100.00;97742.94;4780147;29;20047;-83
2024/04/05 07:02:19;;;;;;;48.13;7.07;;;;;;;11.04;100.00;97712.63;4784624;30;20062;-84
2024/04/05 07:04:45;;;;;;;44.00;7.70;;;;;;;11.07;100.00;97737.03;4761429;29;20103;-83
2024/04/05 07:07:27;;;;;;;46.65;7.63;;;;;;;11.08;100.00;97725.41;4765535;29;20047;-81
2024/04/05 07:09:56;;;;;;;31.40;6.35;;;;;;;11.13;100.00;97741.44;4787734;29;20095;-82
2024/04/05 07:13:10;;;;;;;44.47;7.50;;;;;;;11.16;100.00;97741.81;4787919;29;20485;-84
2024/04/05 07:15:37;;;;;;;38.15;6.00;;;;;;;11.09;100.00;97727.84;4782978;29;20051;-81
2024/04/05 07:18:12;;;;;;;37.10;6.72;;;;;;;11.18;100.00;97746.88;4759230;29;20114;-80
2024/04/05 07:20:39;;;;;;;39.95;7.10;;;;;;;11.24;100.00;97748.69;4762225;30;20039;-83
2024/04/05 07:23:05;;;;;;;49.47;8.02;;;;;;;11.22;100.00;97742.78;4782048;29;20134;-81
2024/04/05 07:25:34;;;;;;;38.10;6.35;;;;;;;11.21;100.00;97740.38;4793199;29;20043;-83
2024/04/05 07:28:02;;;;;;;41.78;6.85;;;;;;;11.27;100.00;97731.56;4784347;30;20035;-85
2024/04/05 07:30:36;;;;;;;37.20;6.75;;;;;;;11.29;100.00;97729.53;4769421;29;20374;-85
2024/04/05 07:33:03;;;;;;;36.67;7.33;;;;;;;11.31;100.00;97732.75;4800963;29;20094;-90
2024/04/05 07:35:37;;;;;;;40.90;7.15;;;;;;;11.34;100.00;97739.47;4774205;30;20040;-94
2024/04/05 07:38:06;;;;;;;33.38;6.15;;;;;;;11.29;100.00;97740.09;4754877;29;20903;-91
2024/04/05 07:40:35;;;;;;;37.60;5.45;;;;;;;11.31;100.00;97729.31;4761257;29;20059;-93
2024/04/05 07:43:13;;;;;;;33.42;6.20;;;;;;;11.38;100.00;97730.06;4769997;29;20046;-91
2024/04/05 07:45:42;;;;;;;31.30;5.30;;;;;;;11.44;100.00;97731.81;4761279;29;20043;-92
2024/04/05 07:48:51;;;;;;;34.47;7.05;;;;;;;11.53;100.00;97754.31;4778852;29;20134;-89
2024/04/05 07:51:20;;;;;;;35.47;5.53;;;;;;;11.62;100.00;97754.88;4782245;29;20111;-80
2024/04/05 07:53:48;;;;;;;36.70;6.70;;;;;;;11.69;100.00;97751.34;4771888;29;20034;-84
2024/04/05 07:56:13;;;;;;;31.02;5.35;;;;;;;11.64;100.00;97746.72;4785823;29;20043;-83
2024/04/05 07:58:49;;;;;;;34.47;5.97;;;;;;;11.83;100.00;97742.25;4788901;29;20046;-89
2024/04/05 08:01:18;;;;;;;28.58;5.28;;;;;;;11.96;100.00;97748.44;4758626;29;20307;-92
2024/04/05 08:03:51;;;;;;;35.58;5.82;;;;;;;11.98;100.00;97756.94;4764607;29;20062;-91
2024/04/05 08:06:23;;;;;;;35.05;5.90;;;;;;;11.99;100.00;97754.09;4766273;29;20053;-80
2024/04/05 08:08:52;;;;;;;26.87;5.70;;;;;;;11.94;100.00;97743.38;4773857;29;20104;-92
2024/04/05 08:11:25;;;;;;;39.88;6.65;;;;;;;11.89;100.00;97744.03;4753794;29;20133;-85
2024/04/05 08:14:02;;;;;;;37.58;6.10;;;;;;;11.90;100.00;97747.47;4771265;29;20027;-83
2024/04/05 08:16:34;;;;;;;39.28;6.15;;;;;;;11.95;100.00;97755.56;4780326;29;20042;-83
2024/04/05 08:19:00;;;;;;;39.25;6.68;;;;;;;12.08;100.00;97740.59;4767390;30;20618;-78
2024/04/05 08:21:29;;;;;;;27.15;4.70;;;;;;;12.23;100.00;97748.16;4767274;29;20073;-84
2024/04/05 08:24:06;;;;;;;30.85;5.55;;;;;;;12.25;100.00;97738.97;4755996;29;20046;-83
2024/04/05 08:26:40;;;;;;;33.33;6.13;;;;;;;12.30;100.00;97754.19;4757368;29;20034;-85
2024/04/05 08:29:10;;;;;;;35.55;7.35;;;;;;;12.38;100.00;97764.47;4796211;29;20039;-85
2024/04/05 08:31:38;;;;;;;33.63;5.18;;;;;;;12.42;100.00;97764.84;4768362;29;20057;-82
2024/04/05 08:34:04;;;;;;;35.33;6.35;;;;;;;12.48;100.00;97744.59;4762114;29;20738;-84
2024/04/05 08:36:30;;;;;;;38.90;6.85;;;;;;;12.55;100.00;97750.59;4743722;30;20038;-83
2024/04/05 08:38:59;;;;;;;31.10;5.45;;;;;;;12.53;100.00;97755.34;4769370;29;20066;-82
2024/04/05 08:41:29;;;;;;;33.63;6.65;;;;;;;12.62;100.00;97753.19;4762359;29;20416;-83
2024/04/05 08:43:58;;;;;;;37.20;6.28;;;;;;;12.62;100.00;97745.22;4771487;29;20046;-80
2024/04/05 08:46:25;;;;;;;35.10;6.45;;;;;;;12.66;100.00;97754.34;4801024;29;20043;-82
2024/04/05 08:49:01;;;;;;;37.42;5.68;;;;;;;12.80;100.00;97727.66;4768113;29;20035;-82
2024/04/05 08:52:05;;;;;;;31.70;5.50;;;;;;;12.85;100.00;97756.94;4753446;30;20047;-85
2024/04/05 08:54:31;;;;;;;33.42;5.05;;;;;;;12.98;100.00;97748.78;4781486;30;20027;-87
2024/04/05 08:57:00;;;;;;;35.72;6.25;;;;;;;13.00;100.00;97765.28;4770563;29;20051;-84
2024/04/05 08:59:30;;;;;;;34.70;6.30;;;;;;;13.13;100.00;97758.16;4785398;29;20067;-81
2024/04/05 09:02:01;;;;;;;37.45;6.60;;;;;;;13.33;100.00;97751.75;4788359;29;20449;-84
2024/04/05 09:04:28;;;;;;;29.27;5.35;;;;;;;13.24;100.00;97744.13;4782446;29;20130;-85
2024/04/05 09:06:55;;;;;;;30.85;6.15;;;;;;;13.13;100.00;97744.91;4752912;29;20047;-81
2024/04/05 09:09:34;;;;;;;31.00;5.55;;;;;;;13.07;100.00;97761.72;4797794;29;20031;-84
2024/04/05 09:12:10;;;;;;;28.08;5.60;;;;;;;12.90;100.00;97765.00;4798405;29;20050;-84
2024/04/05 09:14:37;;;;;;;;;;;;;;;12.70;100.00;97771.41;4789854;29;20039;-82
2024/04/05 09:17:04;;;;;;;;;;;;;;;12.60;100.00;97769.28;4754101;29;19925;-85
2024/04/05 09:19:34;;;;;;;35.65;5.82;;;;;;;12.75;100.00;97766.25;4780918;29;19921;-85
2024/04/05 09:22:04;;;;;;;36.38;5.70;;;;;;;12.79;100.00;97774.56;4786577;29;20724;-84
2024/04/05 09:24:34;;;;;;;33.38;6.07;;;;;;;12.66;100.00;97764.97;4772528;29;20045;-85
2024/04/05 09:27:06;;;;;;;33.25;6.40;;;;;;;12.70;100.00;97776.72;4771615;29;20041;-83
2024/04/05 09:29:41;;;;;;;22.98;4.45;;;;;;;12.57;100.00;97771.56;4778308;29;20090;-84
2024/04/05 09:32:17;;;;;;;27.27;5.90;;;;;;;12.58;100.00;97783.81;4784606;29;20046;-80
2024/04/05 09:34:46;;;;;;;33.33;5.88;;;;;;;12.58;100.00;97791.75;4756302;29;20387;-81
2024/04/05 09:37:19;;;;;;;31.08;5.60;;;;;;;12.56;100.00;97769.97;4782940;29;20051;-85
2024/04/05 09:39:53;;;;;;;22.90;5.00;;;;;;;12.65;100.00;97779.22;4801186;29;20055;-89
2024/04/05 09:42:27;;;;;;;36.13;6.45;;;;;;;12.83;100.00;97785.53;4768656;29;20057;-90
2024/04/05 09:44:56;;;;;;;31.55;5.82;;;;;;;12.99;100.00;97790.19;4756410;30;20101;-93
2024/04/05 09:47:49;;;;;;;34.40;5.32;;;;;;;13.20;100.00;97782.75;4764253;29;20055;-90
2024/04/05 09:50:51;;;;;;;23.80;4.63;;;;;;;13.29;100.00;97791.19;4781020;29;20089;-91
2024/04/05 09:53:24;;;;;;;25.77;5.18;;;;;;;13.29;100.00;97796.50;4788163;29;20047;-90
2024/04/05 09:56:03;;;;;;;23.20;3.85;;;;;;;13.10;100.00;97801.88;4770176;29;20138;-93
2024/04/05 09:58:35;;;;;;;28.58;5.07;;;;;;;12.91;100.00;97801.13;4773103;29;20082;-91
2024/04/05 10:01:23;;;;;;;28.15;6.53;;;;;;;12.77;100.00;97813.75;4760637;29;20046;-93
2024/04/05 10:03:54;;;;;;;30.35;6.70;;;;;;;12.69;100.00;97808.75;4781268;29;20043;-92
2024/04/05 10:06:38;;;;;;;34.63;6.22;;;;;;;12.64;100.00;97815.53;4754192;29;20051;-90
2024/04/05 10:09:37;;;;;;;33.95;5.20;;;;;;;12.62;100.00;97800.88;4787008;29;20046;-93
2024/04/05 10:12:14;;;;;;;29.17;5.13;;;;;;;12.70;100.00;97799.75;4783823;29;20066;-92
2024/04/05 10:14:53;;;;;;;25.23;4.80;;;;;;;12.72;100.00;97790.56;4772971;29;20042;-93
2024/04/05 10:17:34;;;;;;;29.15;5.10;;;;;;;12.84;100.00;97782.63;4773487;29;20046;-92
2024/04/05 10:20:06;;;;;;;24.50;4.07;;;;;;;12.93;100.00;97793.75;4757150;29;20046;-86
2024/04/05 10:22:33;;;;;;;19.67;3.55;;;;;;;12.88;100.00;97790.97;4758926;30;20095;-89
2024/04/05 10:25:03;;;;;;;21.98;3.97;;;;;;;12.79;100.00;97795.75;4768649;29;20078;-89
2024/04/05 10:27:32;;;;;;;28.40;4.82;;;;;;;12.96;100.00;97816.34;4763526;29;20070;-90
2024/04/05 10:30:21;;;;;;;26.85;4.15;;;;;;;12.99;100.00;97824.66;4785826;29;20031;-89
2024/04/05 10:33:22;;;;;;;20.60;3.92;;;;;;;12.97;100.00;97821.41;4788602;29;20046;-83
2024/04/05 10:36:04;;;;;;;27.65;4.90;;;;;;;12.90;100.00;97823.34;4792686;29;20086;-83
2024/04/05 10:38:30;;;;;;;20.83;3.90;;;;;;;12.86;100.00;97838.09;4769812;29;20047;-81
2024/04/05 10:41:06;;;;;;;26.48;5.18;;;;;;;12.88;100.00;97828.06;4778238;29;20489;-83
2024/04/05 10:43:43;;;;;;;21.02;3.55;;;;;;;12.81;100.00;97838.75;4754077;29;20107;-83
2024/04/05 10:46:17;;;;;;;20.23;4.10;;;;;;;12.78;100.00;97823.31;4768908;30;20123;-83
2024/04/05 10:49:04;;;;;;;25.00;4.38;;;;;;;12.76;100.00;97844.72;4754769;29;20047;-85
2024/04/05 10:51:32;;;;;;;29.13;4.35;;;;;;;12.74;100.00;97848.66;4739225;30;20096;-83
2024/04/05 10:54:13;;;;;;;22.08;4.00;;;;;;;12.78;100.00;97852.47;4748206;30;20031;-83
2024/04/05 10:56:47;;;;;;;38.50;5.50;;;;;;;12.82;100.00;97863.44;4754022;29;20071;-84
2024/04/05 10:59:17;;;;;;;28.92;5.10;;;;;;;12.85;100.00;97868.28;4748741;30;20043;-85
2024/04/05 11:01:43;;;;;;;30.48;5.20;;;;;;;12.83;100.00;97865.88;4750580;30;20035;-85
2024/04/05 11:04:12;;;;;;;33.78;4.28;;;;;;;12.85;100.00;97853.16;4763846;30;20043;-84
2024/04/05 11:06:44;;;;;;;25.85;4.60;;;;;;;12.95;100.00;97871.19;4765144;30;20035;-81
2024/04/05 11:09:15;;;;;;;38.65;7.15;;;;;;;12.80;100.00;97876.09;4749930;30;20128;-83
2024/04/05 11:11:42;;;;;;;23.60;4.65;;;;;;;12.83;100.00;97888.91;4760022;30;20039;-82
2024/04/05 11:14:25;;;;;;;33.03;6.65;;;;;;;12.86;100.00;97883.16;4765136;30;20035;-81
2024/04/05 11:17:00;;;;;;;28.80;4.60;;;;;;;12.76;100.00;97891.63;4762349;30;20138;-82
2024/04/05 11:19:30;;;;;;;28.98;5.32;;;;;;;12.68;100.00;97894.59;4782545;29;20052;-83
2024/04/05 11:22:07;;;;;;;32.15;5.18;;;;;;;12.74;100.00;97904.31;4760102;30;20101;-83
2024/04/05 11:24:36;;;;;;;32.90;6.57;;;;;;;12.72;100.00;97896.56;4762924;30;20063;-85
2024/04/05 11:27:11;;;;;;;38.72;6.03;;;;;;;12.73;100.00;97900.84;4768087;29;20055;-83
2024/04/05 11:29:39;;;;;;;40.38;6.00;;;;;;;12.82;100.00;97898.69;4755535;30;20031;-86
2024/04/05 11:32:05;;;;;;;34.40;6.78;;;;;;;12.90;100.00;97893.09;4753656;30;20571;-84
2024/04/05 11:34:34;;;;;;;29.55;5.03;;;;;;;12.91;100.00;97896.56;4753409;30;20168;-80
2024/04/05 11:37:09;;;;;;;40.05;5.53;;;;;;;12.88;100.00;97897.00;4754234;30;20410;-86
2024/04/05 11:39:41;;;;;;;30.00;6.00;;;;;;;12.86;100.00;97897.22;4752443;30;20074;-83
2024/04/05 11:42:13;;;;;;;30.70;5.30;;;;;;;12.90;100.00;97905.53;4756021;29;20078;-85
2024/04/05 11:44:47;;;;;;;36.80;6.00;;;;;;;12.98;100.00;97913.19;4780316;29;20081;-84
2024/04/05 11:47:14;;;;;;;32.40;6.75;;;;;;;13.14;100.00;97916.25;4768350;29;20051;-81
2024/04/05 11:49:41;;;;;;;40.35;6.22;;;;;;;13.23;100.00;97928.19;4753155;30;20134;-85
2024/04/05 11:52:10;;;;;;;29.27;5.40;;;;;;;13.35;100.00;97916.78;4770426;29;20081;-85
2024/04/05 11:54:36;;;;;;;37.17;5.25;;;;;;;13.47;100.00;97919.50;4761512;29;20081;-81
2024/04/05 11:57:02;;;;;;;33.40;5.47;;;;;;;13.52;100.00;97912.50;4787226;29;20034;-87
2024/04/05 11:59:28;;;;;;;30.90;5.47;;;;;;;13.58;100.00;97923.25;4758597;29;20045;-83
2024/04/05 12:02:17;;;;;;;37.42;6.43;;;;;;;13.59;100.00;97931.00;4783026;29;20091;-82
2024/04/05 12:04:46;;;;;;;36.83;6.93;;;;;;;13.63;100.00;97934.81;4783377;29;20039;-83
2024/04/05 12:07:18;;;;;;;37.22;5.90;;;;;;;13.60;100.00;97958.34;4779518;29;20463;-82
2024/04/05 12:09:44;;;;;;;37.75;6.57;;;;;;;13.52;100.00;97959.47;4786366;29;20030;-83
2024/04/05 12:12:15;;;;;;;28.63;5.88;;;;;;;13.50;100.00;97942.94;4795535;29;20039;-85
2024/04/05 12:14:41;;;;;;;31.70;5.40;;;;;;;13.54;100.00;97941.47;4783883;29;20043;-84